createdAt,value
2019-04-26T00:00:56.244Z,9.70
2019-04-26T00:03:26.276Z,9.80
2019-04-26T00:05:55.538Z,9.80
2019-04-26T00:08:23.993Z,9.90
2019-04-26T00:10:54.022Z,10.00
2019-04-26T00:13:24.809Z,10.00
2019-04-26T00:15:55.621Z,9.90
2019-04-26T00:18:24.000Z,9.80
2019-04-26T00:20:52.388Z,9.80
2019-04-26T00:23:20.957Z,9.90
2019-04-26T00:25:49.342Z,9.80
2019-04-26T00:28:17.733Z,9.90
2019-04-26T00:30:46.117Z,9.80
2019-04-26T00:33:15.278Z,9.90
2019-04-26T00:35:47.612Z,10.00
2019-04-26T00:38:14.385Z,10.00
2019-04-26T00:40:45.008Z,10.00
2019-04-26T00:43:14.357Z,10.00
2019-04-26T00:45:43.581Z,10.00
2019-04-26T00:48:15.073Z,10.00
2019-04-26T00:50:45.858Z,10.00
2019-04-26T00:53:16.046Z,10.00
2019-04-26T00:55:47.000Z,10.00
2019-04-26T00:58:18.665Z,10.00
2019-04-26T01:00:48.897Z,10.10
2019-04-26T01:03:17.310Z,10.10
2019-04-26T01:05:45.685Z,10.10
2019-04-26T01:08:15.689Z,10.10
2019-04-26T01:10:44.189Z,10.10
2019-04-26T01:13:12.585Z,10.10
2019-04-26T01:15:40.974Z,10.10
2019-04-26T01:18:09.356Z,10.20
2019-04-26T01:20:40.160Z,10.20
2019-04-26T01:23:11.620Z,10.10
2019-04-26T01:25:45.869Z,10.00
2019-04-26T01:28:18.492Z,10.00
2019-04-26T01:30:48.264Z,10.00
2019-04-26T01:33:17.818Z,10.00
2019-04-26T01:35:47.976Z,10.00
2019-04-26T01:38:17.605Z,10.00
2019-04-26T01:40:47.717Z,10.00
2019-04-26T01:43:33.388Z,10.00
2019-04-26T01:46:15.497Z,10.00
2019-04-26T01:48:55.937Z,9.90
2019-04-26T01:51:38.933Z,10.00
2019-04-26T01:54:10.268Z,9.90
2019-04-26T01:56:38.724Z,9.80
2019-04-26T01:59:10.184Z,9.80
2019-04-26T02:01:44.108Z,9.80
2019-04-26T02:04:12.705Z,9.80
2019-04-26T02:06:41.092Z,9.80
2019-04-26T02:09:11.113Z,9.80
2019-04-26T02:11:41.429Z,9.80
2019-04-26T02:14:10.893Z,9.80
2019-04-26T02:16:40.104Z,9.70
2019-04-26T02:19:08.553Z,9.70
2019-04-26T02:21:42.204Z,9.70
2019-04-26T02:24:18.277Z,9.70
2019-04-26T02:26:49.799Z,9.70
2019-04-26T02:29:25.097Z,9.60
2019-04-26T02:31:57.361Z,9.60
2019-04-26T02:34:29.237Z,9.60
2019-04-26T02:36:59.515Z,9.70
2019-04-26T02:39:32.073Z,9.80
2019-04-26T02:42:04.160Z,9.70
2019-04-26T02:44:38.338Z,9.80
2019-04-26T02:47:34.130Z,9.80
2019-04-26T02:50:09.201Z,9.80
2019-04-26T02:52:52.390Z,9.80
2019-04-26T02:55:46.741Z,9.90
2019-04-26T02:58:17.025Z,9.80
2019-04-26T03:00:45.770Z,9.90
2019-04-26T03:03:36.345Z,9.90
2019-04-26T03:06:05.257Z,9.90
2019-04-26T03:08:37.769Z,9.80
2019-04-26T03:11:09.749Z,9.70
2019-04-26T03:13:48.832Z,9.70
2019-04-26T03:16:39.236Z,9.60
2019-04-26T03:19:15.703Z,9.60
2019-04-26T03:22:02.470Z,9.50
2019-04-26T03:24:35.061Z,9.50
2019-04-26T03:27:12.638Z,9.50
2019-04-26T03:30:19.042Z,9.40
2019-04-26T03:32:55.347Z,9.50
2019-04-26T03:35:56.516Z,9.50
2019-04-26T03:38:51.470Z,9.40
2019-04-26T03:41:38.351Z,9.40
2019-04-26T03:44:09.869Z,9.40
2019-04-26T03:46:56.525Z,9.40
2019-04-26T03:49:44.176Z,9.40
2019-04-26T03:52:37.974Z,9.30
2019-04-26T03:55:24.108Z,9.30
2019-04-26T03:58:06.204Z,9.40
2019-04-26T04:00:51.311Z,9.40
2019-04-26T04:03:26.810Z,9.40
2019-04-26T04:05:58.788Z,9.40
2019-04-26T04:09:05.102Z,9.50
2019-04-26T04:11:38.623Z,9.40
2019-04-26T04:14:45.014Z,9.40
2019-04-26T04:17:23.902Z,9.50
2019-04-26T04:20:11.615Z,9.40
2019-04-26T04:22:44.010Z,9.40
2019-04-26T04:25:19.088Z,9.40
2019-04-26T04:27:53.493Z,9.40
2019-04-26T04:30:30.724Z,9.40
2019-04-26T04:33:08.054Z,9.50
2019-04-26T04:35:41.741Z,9.50
2019-04-26T04:38:37.047Z,9.50
2019-04-26T04:41:16.208Z,9.50
2019-04-26T04:44:05.926Z,9.50
2019-04-26T04:46:54.241Z,9.40
2019-04-26T04:49:48.999Z,9.30
2019-04-26T04:52:24.456Z,9.20
2019-04-26T04:55:07.358Z,9.30
2019-04-26T04:57:44.009Z,9.20
2019-04-26T05:00:32.041Z,9.30
2019-04-26T05:03:35.477Z,9.50
2019-04-26T05:06:23.529Z,9.50
2019-04-26T05:09:09.424Z,9.60
2019-04-26T05:11:55.836Z,9.70
2019-04-26T05:14:59.410Z,9.70
2019-04-26T05:17:49.487Z,9.70
2019-04-26T05:20:36.391Z,9.70
2019-04-26T05:23:39.918Z,9.70
2019-04-26T05:26:37.377Z,9.70
2019-04-26T05:29:28.652Z,9.70
2019-04-26T05:32:17.072Z,9.70
2019-04-26T05:34:52.925Z,9.70
2019-04-26T05:37:37.243Z,9.70
2019-04-26T05:40:18.076Z,9.70
2019-04-26T05:43:14.445Z,9.70
2019-04-26T05:46:26.724Z,9.70
2019-04-26T05:49:19.074Z,9.70
2019-04-26T05:52:44.747Z,9.80
2019-04-26T05:55:43.351Z,9.90
2019-04-26T05:58:20.307Z,10.10
2019-04-26T06:01:14.417Z,10.20
2019-04-26T06:04:16.172Z,10.30
2019-04-26T06:06:57.826Z,10.30
2019-04-26T06:10:05.942Z,10.40
2019-04-26T06:12:44.683Z,10.50
2019-04-26T06:15:36.979Z,10.50
2019-04-26T06:18:21.945Z,10.50
2019-04-26T06:20:54.126Z,10.50
2019-04-26T06:23:53.933Z,10.50
2019-04-26T06:26:36.277Z,10.50
2019-04-26T06:29:07.720Z,10.60
2019-04-26T06:31:48.397Z,10.60
2019-04-26T06:34:22.456Z,10.70
2019-04-26T06:36:56.104Z,10.80
2019-04-26T06:39:31.712Z,10.90
2019-04-26T06:42:24.021Z,10.90
2019-04-26T06:45:23.681Z,11.00
2019-04-26T06:48:03.927Z,11.10
2019-04-26T06:50:40.773Z,11.20
2019-04-26T06:53:24.409Z,11.30
2019-04-26T06:56:03.381Z,11.30
2019-04-26T06:59:03.418Z,11.40
2019-04-26T07:01:37.937Z,11.40
2019-04-26T07:04:09.984Z,11.40
2019-04-26T07:07:04.613Z,11.50
2019-04-26T07:09:37.936Z,11.60
2019-04-26T07:12:25.622Z,11.60
2019-04-26T07:15:03.838Z,11.70
2019-04-26T07:17:50.892Z,11.80
2019-04-26T07:20:38.924Z,11.80
2019-04-26T07:23:12.687Z,11.90
2019-04-26T07:26:08.992Z,12.10
2019-04-26T07:28:47.821Z,12.20
2019-04-26T07:31:33.670Z,12.30
2019-04-26T07:34:15.050Z,12.40
2019-04-26T07:37:19.984Z,12.60
2019-04-26T07:40:11.473Z,12.80
2019-04-26T07:43:21.399Z,13.00
2019-04-26T07:46:08.081Z,12.90
2019-04-26T07:49:01.703Z,12.90
2019-04-26T07:52:06.540Z,12.90
2019-04-26T07:54:44.150Z,13.00
2019-04-26T07:57:44.365Z,13.00
2019-04-26T08:00:17.514Z,13.10
2019-04-26T08:02:53.018Z,13.10
2019-04-26T08:05:35.102Z,13.10
2019-04-26T08:08:08.683Z,13.00
2019-04-26T08:10:40.855Z,12.90
2019-04-26T08:13:15.283Z,12.80
2019-04-26T08:16:00.730Z,12.80
2019-04-26T08:18:39.975Z,13.00
2019-04-26T08:21:18.153Z,13.20
2019-04-26T08:23:52.482Z,13.50
2019-04-26T08:26:26.258Z,13.70
2019-04-26T08:29:00.486Z,13.70
2019-04-26T08:31:31.061Z,13.80
2019-04-26T08:34:07.486Z,13.90
2019-04-26T08:36:41.091Z,13.80
2019-04-26T08:39:45.525Z,13.60
2019-04-26T08:42:20.068Z,13.50
2019-04-26T08:44:48.094Z,13.50
2019-04-26T08:47:25.846Z,13.40
2019-04-26T08:50:11.094Z,13.40
2019-04-26T08:52:41.344Z,13.60
2019-04-26T08:55:12.168Z,13.70
2019-04-26T08:57:43.642Z,13.90
2019-04-26T09:00:16.753Z,14.10
2019-04-26T09:02:49.869Z,14.30
2019-04-26T09:05:31.841Z,14.30
2019-04-26T09:08:04.009Z,14.30
2019-04-26T09:10:39.280Z,14.40
2019-04-26T09:13:09.354Z,14.40
2019-04-26T09:16:11.855Z,14.50
2019-04-26T09:18:43.334Z,14.80
2019-04-26T09:21:13.283Z,15.20
2019-04-26T09:24:00.950Z,15.40
2019-04-26T09:26:42.483Z,15.70
2019-04-26T09:29:12.519Z,16.20
2019-04-26T09:31:55.408Z,16.60
2019-04-26T09:34:25.473Z,16.90
2019-04-26T09:36:53.873Z,16.90
2019-04-26T09:39:24.020Z,16.70
2019-04-26T09:41:54.060Z,16.70
2019-04-26T09:44:41.326Z,17.10
2019-04-26T09:47:20.043Z,17.60
2019-04-26T09:50:06.593Z,17.90
2019-04-26T09:52:36.625Z,18.20
2019-04-26T09:55:07.751Z,18.70
2019-04-26T09:57:36.156Z,19.10
2019-04-26T10:00:10.318Z,19.70
2019-04-26T10:02:37.869Z,19.90
2019-04-26T10:05:11.529Z,19.80
2019-04-26T10:07:38.924Z,19.60
2019-04-26T10:10:09.290Z,19.30
2019-04-26T10:12:55.444Z,19.00
2019-04-26T10:15:28.424Z,18.70
2019-04-26T10:17:58.286Z,18.60
2019-04-26T10:20:26.682Z,19.10
2019-04-26T10:22:55.064Z,20.00
2019-04-26T10:25:23.472Z,20.80
2019-04-26T10:27:51.860Z,22.00
2019-04-26T10:30:20.320Z,22.60
2019-04-26T10:32:48.716Z,22.30
2019-04-26T10:35:17.661Z,21.90
2019-04-26T10:37:52.921Z,21.50
2019-04-26T10:40:21.329Z,20.80
2019-04-26T10:42:49.717Z,20.20
2019-04-26T10:45:19.745Z,19.70
2019-04-26T10:47:48.148Z,19.40
2019-04-26T10:50:17.468Z,19.30
2019-04-26T10:52:53.701Z,19.20
2019-04-26T10:55:23.082Z,19.20
2019-04-26T10:58:09.191Z,19.40
2019-04-26T11:00:58.876Z,20.00
2019-04-26T11:03:27.297Z,20.70
2019-04-26T11:05:55.649Z,21.20
2019-04-26T11:08:24.040Z,21.40
2019-04-26T11:10:52.432Z,21.50
2019-04-26T11:13:20.838Z,21.20
2019-04-26T11:15:50.057Z,21.30
2019-04-26T11:18:19.779Z,22.00
2019-04-26T11:20:48.552Z,22.50
2019-04-26T11:23:16.954Z,23.20
2019-04-26T11:25:45.328Z,23.60
2019-04-26T11:28:17.322Z,23.90
2019-04-26T11:30:43.997Z,23.70
2019-04-26T11:33:12.756Z,24.00
2019-04-26T11:35:41.714Z,23.30
2019-04-26T11:38:10.197Z,23.70
2019-04-26T11:40:38.652Z,24.60
2019-04-26T11:43:07.036Z,24.30
2019-04-26T11:45:35.434Z,24.80
2019-04-26T11:48:03.813Z,25.30
2019-04-26T11:50:32.217Z,24.80
2019-04-26T11:53:00.613Z,24.80
2019-04-26T11:55:29.671Z,24.30
2019-04-26T11:57:59.112Z,23.50
2019-04-26T12:00:29.138Z,23.30
2019-04-26T12:02:57.600Z,22.80
2019-04-26T12:05:30.435Z,22.90
2019-04-26T12:08:03.298Z,23.30
2019-04-26T12:10:31.703Z,23.60
2019-04-26T12:13:05.966Z,23.80
2019-04-26T12:15:30.741Z,24.10
2019-04-26T12:17:59.781Z,23.70
2019-04-26T12:20:28.485Z,23.30
2019-04-26T12:22:57.432Z,22.50
2019-04-26T12:25:25.840Z,22.30
2019-04-26T12:27:54.385Z,22.60
2019-04-26T12:30:26.625Z,23.20
2019-04-26T12:32:53.524Z,23.50
2019-04-26T12:35:21.916Z,23.70
2019-04-26T12:37:50.646Z,23.30
2019-04-26T12:40:20.429Z,23.10
2019-04-26T12:42:48.899Z,23.20
2019-04-26T12:45:31.082Z,23.40
2019-04-26T12:48:01.119Z,23.50
2019-04-26T12:50:35.049Z,23.60
2019-04-26T12:52:59.626Z,23.90
2019-04-26T12:55:28.018Z,24.00
2019-04-26T12:57:56.411Z,24.10
2019-04-26T13:00:26.437Z,24.10
2019-04-26T13:02:55.852Z,23.80
2019-04-26T13:05:24.896Z,23.40
2019-04-26T13:07:54.958Z,23.40
2019-04-26T13:10:39.985Z,23.30
2019-04-26T13:13:16.052Z,23.20
2019-04-26T13:16:04.374Z,22.90
2019-04-26T13:18:32.772Z,22.60
2019-04-26T13:21:03.031Z,22.40
2019-04-26T13:23:31.434Z,22.10
2019-04-26T13:26:01.445Z,22.10
2019-04-26T13:28:29.988Z,22.20
2019-04-26T13:30:58.457Z,22.80
2019-04-26T13:33:27.873Z,23.90
2019-04-26T13:36:04.393Z,24.40
2019-04-26T13:38:27.346Z,24.50
2019-04-26T13:40:59.450Z,23.40
2019-04-26T13:43:26.971Z,22.20
2019-04-26T13:45:57.599Z,21.60
2019-04-26T13:48:45.323Z,21.90
2019-04-26T13:51:30.469Z,22.70
2019-04-26T13:53:58.854Z,22.50
2019-04-26T13:56:47.793Z,21.60
2019-04-26T13:59:16.181Z,20.70
2019-04-26T14:01:44.719Z,20.00
2019-04-26T14:04:13.200Z,20.30
2019-04-26T14:06:45.779Z,22.30
2019-04-26T14:09:15.846Z,23.70
2019-04-26T14:11:44.297Z,24.60
2019-04-26T14:14:13.565Z,24.80
2019-04-26T14:16:42.108Z,23.80
2019-04-26T14:19:14.438Z,22.90
2019-04-26T14:21:40.688Z,22.00
2019-04-26T14:24:25.704Z,21.10
2019-04-26T14:26:55.731Z,20.70
2019-04-26T14:29:24.451Z,21.70
2019-04-26T14:31:53.158Z,23.20
2019-04-26T14:34:22.366Z,24.80
2019-04-26T14:36:50.767Z,25.80
2019-04-26T14:39:20.997Z,26.60
2019-04-26T14:41:52.757Z,26.10
2019-04-26T14:44:19.452Z,25.50
2019-04-26T14:46:48.994Z,26.00
2019-04-26T14:49:19.244Z,25.60
2019-04-26T14:51:50.825Z,24.50
2019-04-26T14:54:18.285Z,23.20
2019-04-26T14:56:52.378Z,22.10
2019-04-26T14:59:18.433Z,21.20
2019-04-26T15:01:52.296Z,20.40
2019-04-26T15:04:34.760Z,19.80
2019-04-26T15:07:05.681Z,19.40
2019-04-26T15:09:36.534Z,19.30
2019-04-26T15:12:07.635Z,19.10
2019-04-26T15:14:35.012Z,18.90
2019-04-26T15:17:03.442Z,18.60
2019-04-26T15:19:35.040Z,18.20
2019-04-26T15:22:04.073Z,17.90
2019-04-26T15:24:35.115Z,17.50
2019-04-26T15:27:03.359Z,17.30
2019-04-26T15:29:32.806Z,16.90
2019-04-26T15:32:03.169Z,16.60
2019-04-26T15:34:31.295Z,16.20
2019-04-26T15:36:59.718Z,15.90
2019-04-26T15:39:35.669Z,15.60
2019-04-26T15:42:17.560Z,15.30
2019-04-26T15:44:57.572Z,15.00
2019-04-26T15:47:37.331Z,14.90
2019-04-26T15:50:14.452Z,15.10
2019-04-26T15:52:43.887Z,15.40
2019-04-26T15:55:13.325Z,15.80
2019-04-26T15:57:43.300Z,16.10
2019-04-26T16:00:12.609Z,16.20
2019-04-26T16:02:42.751Z,16.20
2019-04-26T16:05:12.362Z,16.40
2019-04-26T16:07:42.968Z,16.60
2019-04-26T16:10:12.198Z,16.80
2019-04-26T16:12:42.254Z,17.20
2019-04-26T16:15:14.720Z,17.50
2019-04-26T16:17:41.319Z,17.60
2019-04-26T16:20:11.902Z,17.50
2019-04-26T16:22:40.654Z,17.50
2019-04-26T16:25:10.002Z,17.50
2019-04-26T16:27:38.403Z,17.70
2019-04-26T16:30:19.075Z,17.70
2019-04-26T16:32:54.080Z,17.70
2019-04-26T16:35:28.050Z,17.70
2019-04-26T16:37:53.946Z,17.70
2019-04-26T16:40:23.945Z,17.60
2019-04-26T16:42:56.581Z,17.30
2019-04-26T16:45:22.764Z,17.10
2019-04-26T16:47:52.633Z,16.90
2019-04-26T16:50:24.097Z,16.70
2019-04-26T16:52:51.420Z,16.60
2019-04-26T16:55:21.352Z,16.40
2019-04-26T16:57:55.658Z,16.20
2019-04-26T17:00:20.295Z,16.00
2019-04-26T17:02:52.621Z,15.90
2019-04-26T17:05:35.570Z,15.90
2019-04-26T17:07:53.737Z,15.90
2019-04-26T17:10:23.426Z,15.90
2019-04-26T17:12:52.325Z,16.00
2019-04-26T17:15:22.154Z,16.00
2019-04-26T17:17:52.641Z,16.10
2019-04-26T17:20:21.274Z,16.20
2019-04-26T17:22:59.397Z,16.20
2019-04-26T17:25:27.014Z,16.20
2019-04-26T17:27:56.016Z,16.20
2019-04-26T17:30:26.055Z,16.10
2019-04-26T17:32:55.374Z,16.00
2019-04-26T17:35:25.383Z,15.90
2019-04-26T17:37:57.518Z,15.80
2019-04-26T17:40:25.449Z,15.70
2019-04-26T17:42:56.037Z,15.60
2019-04-26T17:45:24.491Z,15.60
2019-04-26T17:47:53.076Z,15.60
2019-04-26T17:50:22.057Z,15.60
2019-04-26T17:52:51.563Z,15.60
2019-04-26T17:55:20.611Z,15.50
2019-04-26T17:57:50.699Z,15.40
2019-04-26T18:00:26.745Z,15.30
2019-04-26T18:02:51.297Z,15.20
2019-04-26T18:05:24.472Z,15.10
2019-04-26T18:07:56.572Z,15.00
2019-04-26T18:10:20.915Z,14.80
2019-04-26T18:12:50.790Z,14.70
2019-04-26T18:15:19.650Z,14.60
2019-04-26T18:17:51.197Z,14.50
2019-04-26T18:20:37.400Z,14.40
2019-04-26T18:23:18.622Z,14.30
2019-04-26T18:25:46.583Z,14.10
2019-04-26T18:28:17.854Z,13.90
2019-04-26T18:30:47.671Z,13.80
2019-04-26T18:33:17.576Z,13.60
2019-04-26T18:35:49.322Z,13.40
2019-04-26T18:38:16.489Z,13.30
2019-04-26T18:40:59.830Z,13.10
2019-04-26T18:43:18.848Z,12.90
2019-04-26T18:45:46.802Z,12.70
2019-04-26T18:48:15.189Z,12.50
2019-04-26T18:50:45.733Z,12.40
2019-04-26T18:53:15.367Z,12.30
2019-04-26T18:55:48.378Z,12.10
2019-04-26T18:58:16.770Z,12.00
2019-04-26T19:00:45.500Z,11.90
2019-04-26T19:03:15.882Z,11.90
2019-04-26T19:05:44.029Z,11.90
2019-04-26T19:08:14.818Z,12.00
2019-04-26T19:10:43.686Z,12.00
2019-04-26T19:13:22.186Z,12.00
2019-04-26T19:15:53.098Z,11.90
2019-04-26T19:18:23.117Z,11.70
2019-04-26T19:20:55.645Z,11.60
2019-04-26T19:23:28.991Z,11.50
2019-04-26T19:25:54.222Z,11.50
2019-04-26T19:28:22.624Z,11.50
2019-04-26T19:30:53.146Z,11.60
2019-04-26T19:33:21.561Z,11.60
2019-04-26T19:35:50.624Z,11.50
2019-04-26T19:38:19.020Z,11.30
2019-04-26T19:40:48.120Z,11.10
2019-04-26T19:43:28.154Z,11.10
2019-04-26T19:45:48.977Z,11.20
2019-04-26T19:48:20.694Z,11.20
2019-04-26T19:51:06.817Z,11.30
2019-04-26T19:53:36.852Z,11.30
2019-04-26T19:56:06.893Z,11.30
2019-04-26T19:58:45.787Z,11.10
2019-04-26T20:01:07.139Z,11.00
2019-04-26T20:03:35.510Z,11.00
2019-04-26T20:06:05.016Z,10.90
2019-04-26T20:08:35.458Z,11.00
2019-04-26T20:11:03.681Z,11.00
2019-04-26T20:13:32.088Z,11.00
2019-04-26T20:16:02.691Z,11.20
2019-04-26T20:18:34.472Z,11.50
2019-04-26T20:21:02.384Z,11.70
2019-04-26T20:23:33.631Z,11.90
2019-04-26T20:26:06.932Z,12.00
2019-04-26T20:28:35.877Z,12.10
2019-04-26T20:31:19.113Z,12.20
2019-04-26T20:33:47.874Z,12.30
2019-04-26T20:36:16.776Z,12.40
2019-04-26T20:38:47.358Z,12.40
2019-04-26T20:41:15.309Z,12.30
2019-04-26T20:43:48.456Z,12.20
2019-04-26T20:46:15.536Z,12.00
2019-04-26T20:48:44.840Z,11.80
2019-04-26T20:51:13.232Z,11.50
2019-04-26T20:53:43.689Z,11.20
2019-04-26T20:56:16.639Z,11.00
2019-04-26T20:58:43.136Z,10.90
2019-04-26T21:01:15.156Z,10.70
2019-04-26T21:03:45.955Z,10.60
2019-04-26T21:06:13.736Z,10.50
2019-04-26T21:08:42.497Z,10.60
2019-04-26T21:11:13.748Z,10.60
2019-04-26T21:13:41.697Z,10.60
2019-04-26T21:16:14.379Z,10.60
2019-04-26T21:18:44.002Z,10.60
2019-04-26T21:21:11.887Z,10.60
2019-04-26T21:23:42.211Z,10.50
2019-04-26T21:26:16.514Z,10.50
2019-04-26T21:28:47.165Z,10.50
2019-04-26T21:31:17.330Z,10.50
2019-04-26T21:33:47.449Z,10.40
2019-04-26T21:36:26.352Z,10.40
2019-04-26T21:38:59.344Z,10.40
2019-04-26T21:41:30.572Z,10.40
2019-04-26T21:43:58.989Z,10.20
2019-04-26T21:46:28.837Z,10.10
2019-04-26T21:48:57.458Z,10.10
2019-04-26T21:51:25.924Z,10.00
2019-04-26T21:53:54.328Z,9.90
2019-04-26T21:56:23.524Z,9.90
2019-04-26T21:58:53.293Z,9.80
2019-04-26T22:01:25.294Z,9.80
2019-04-26T22:03:58.163Z,9.80
2019-04-26T22:06:28.254Z,9.80
2019-04-26T22:11:53.260Z,9.80
2019-04-26T22:14:21.607Z,9.70
2019-04-26T22:16:57.562Z,9.70
2019-04-26T22:19:32.534Z,9.70
2019-04-26T22:22:15.338Z,9.80
2019-04-26T22:24:51.405Z,9.60
2019-04-26T22:27:21.860Z,9.50
2019-04-26T22:29:51.941Z,9.50
2019-04-26T22:32:20.039Z,9.50
2019-04-26T22:34:48.501Z,9.40
2019-04-26T22:37:29.095Z,9.30
2019-04-26T22:39:47.087Z,9.30
2019-04-26T22:42:17.046Z,9.20
2019-04-26T22:44:49.762Z,9.10
2019-04-26T22:47:19.797Z,9.10
2019-04-26T22:49:48.177Z,8.90
2019-04-26T22:52:16.799Z,8.70
2019-04-26T22:54:46.776Z,8.50
2019-04-26T22:57:16.410Z,8.50
2019-04-26T22:59:49.995Z,8.40
2019-04-26T23:02:18.266Z,8.40
2019-04-26T23:04:47.389Z,8.40
2019-04-26T23:07:18.529Z,8.50
2019-04-26T23:09:51.887Z,8.50
2019-04-26T23:12:27.978Z,8.50
2019-04-26T23:14:55.149Z,8.50
2019-04-26T23:17:32.878Z,8.50
2019-04-26T23:20:14.988Z,8.50
2019-04-26T23:22:43.406Z,8.50
2019-04-26T23:25:13.554Z,8.50
2019-04-26T23:27:43.495Z,8.50
2019-04-26T23:30:13.656Z,8.40
2019-04-26T23:32:43.463Z,8.40
2019-04-26T23:35:13.727Z,8.40
2019-04-26T23:37:42.279Z,8.40
2019-04-26T23:40:11.421Z,8.40
2019-04-26T23:42:39.796Z,8.50
2019-04-26T23:45:10.930Z,8.40
2019-04-26T23:47:39.040Z,8.30
2019-04-26T23:50:08.161Z,8.20
2019-04-26T23:52:36.534Z,8.20
2019-04-26T23:55:08.661Z,8.20
2019-04-26T23:57:36.410Z,8.10
